createdAt,value
2018-11-10T00:01:10.376Z,7.83
2018-11-10T00:03:39.143Z,8.53
2018-11-10T00:06:08.029Z,8.03
2018-11-10T00:08:36.681Z,7.60
2018-11-10T00:11:05.246Z,8.50
2018-11-10T00:13:33.970Z,8.03
2018-11-10T00:16:02.850Z,8.20
2018-11-10T00:18:31.734Z,8.40
2018-11-10T00:21:00.378Z,7.80
2018-11-10T00:23:28.910Z,7.60
2018-11-10T00:25:57.663Z,8.13
2018-11-10T00:28:26.353Z,8.13
2018-11-10T00:30:55.051Z,7.90
2018-11-10T00:33:24.031Z,8.50
2018-11-10T00:35:52.914Z,8.13
2018-11-10T00:38:21.806Z,8.37
2018-11-10T00:40:50.459Z,8.30
2018-11-10T00:43:19.206Z,8.30
2018-11-10T00:45:48.090Z,8.33
2018-11-10T00:48:16.738Z,8.90
2018-11-10T00:50:45.309Z,9.07
2018-11-10T00:53:13.821Z,9.20
2018-11-10T00:55:42.574Z,9.60
2018-11-10T00:58:11.233Z,10.03
2018-11-10T01:00:39.756Z,9.33
2018-11-10T01:03:08.284Z,9.27
2018-11-10T01:05:36.861Z,10.00
2018-11-10T01:08:05.566Z,10.50
2018-11-10T01:10:34.298Z,10.23
2018-11-10T01:13:03.167Z,10.17
2018-11-10T01:15:31.798Z,10.70
2018-11-10T01:18:00.362Z,10.77
2018-11-10T01:20:28.882Z,10.47
2018-11-10T01:22:57.414Z,10.83
2018-11-10T01:25:25.930Z,10.20
2018-11-10T01:27:54.486Z,10.80
2018-11-10T01:30:22.985Z,11.00
2018-11-10T01:32:51.729Z,10.80
2018-11-10T01:35:20.353Z,11.00
2018-11-10T01:37:49.106Z,10.50
2018-11-10T01:40:17.971Z,10.50
2018-11-10T01:42:46.838Z,10.70
2018-11-10T01:45:16.750Z,10.43
2018-11-10T01:47:45.880Z,10.97
2018-11-10T01:50:14.781Z,10.60
2018-11-10T01:52:43.581Z,10.37
2018-11-10T01:55:12.267Z,11.00
2018-11-10T01:57:41.501Z,10.40
2018-11-10T02:00:11.041Z,10.70
2018-11-10T02:02:39.600Z,10.47
2018-11-10T02:05:08.321Z,10.40
2018-11-10T02:07:36.842Z,9.97
2018-11-10T02:10:05.874Z,10.37
2018-11-10T02:12:34.662Z,10.60
2018-11-10T02:15:03.548Z,10.13
2018-11-10T02:17:32.198Z,10.90
2018-11-10T02:20:00.734Z,10.83
2018-11-10T02:22:29.315Z,10.80
2018-11-10T02:24:58.117Z,12.17
2018-11-10T02:27:26.939Z,11.40
2018-11-10T02:29:55.665Z,11.40
2018-11-10T02:32:24.199Z,11.90
2018-11-10T02:34:52.914Z,11.73
2018-11-10T02:37:21.679Z,12.03
2018-11-10T02:39:50.370Z,12.27
2018-11-10T02:42:19.084Z,12.03
2018-11-10T02:44:47.979Z,11.63
2018-11-10T02:47:16.870Z,11.67
2018-11-10T02:49:45.770Z,12.10
2018-11-10T02:52:14.492Z,12.10
2018-11-10T02:54:43.190Z,11.83
2018-11-10T02:57:11.837Z,11.63
2018-11-10T02:59:40.366Z,12.03
2018-11-10T03:02:09.181Z,11.73
2018-11-10T03:04:38.082Z,11.10
2018-11-10T03:07:06.957Z,11.27
2018-11-10T03:09:35.836Z,11.13
2018-11-10T03:12:05.202Z,10.20
2018-11-10T03:14:34.503Z,11.47
2018-11-10T03:17:03.395Z,10.13
2018-11-10T03:19:32.061Z,10.10
2018-11-10T03:22:00.831Z,11.00
2018-11-10T03:24:29.470Z,9.70
2018-11-10T03:26:58.313Z,10.67
2018-11-10T03:29:27.142Z,9.43
2018-11-10T03:31:56.022Z,9.13
2018-11-10T03:34:24.913Z,9.13
2018-11-10T03:36:53.823Z,9.43
2018-11-10T03:39:22.710Z,8.87
2018-11-10T03:41:51.615Z,8.17
2018-11-10T03:44:20.261Z,8.63
2018-11-10T03:46:48.784Z,7.70
2018-11-10T03:49:18.187Z,7.00
2018-11-10T03:51:46.700Z,7.07
2018-11-10T03:54:15.447Z,7.37
2018-11-10T03:56:44.072Z,7.60
2018-11-10T03:59:12.578Z,6.57
2018-11-10T04:01:41.077Z,6.67
2018-11-10T04:04:09.807Z,6.60
2018-11-10T04:06:38.521Z,6.53
2018-11-10T04:09:07.515Z,6.13
2018-11-10T04:11:36.377Z,5.97
2018-11-10T04:14:05.326Z,6.40
2018-11-10T04:16:34.332Z,5.60
2018-11-10T04:19:02.962Z,5.77
2018-11-10T04:21:31.706Z,5.53
2018-11-10T04:24:00.379Z,5.27
2018-11-10T04:26:29.102Z,6.03
2018-11-10T04:28:57.961Z,5.40
2018-11-10T04:31:26.826Z,5.60
2018-11-10T04:33:55.451Z,4.93
2018-11-10T04:36:24.426Z,5.27
2018-11-10T04:38:53.058Z,4.80
2018-11-10T04:41:21.563Z,5.00
2018-11-10T04:43:50.136Z,4.90
2018-11-10T04:46:18.873Z,5.30
2018-11-10T04:48:47.498Z,5.47
2018-11-10T04:51:16.094Z,4.77
2018-11-10T04:53:44.858Z,4.70
2018-11-10T04:56:13.584Z,5.23
2018-11-10T04:58:42.323Z,4.77
2018-11-10T05:01:11.045Z,4.67
2018-11-10T05:03:39.795Z,4.83
2018-11-10T05:06:08.320Z,5.13
2018-11-10T05:08:37.249Z,4.80
2018-11-10T05:11:06.286Z,4.93
2018-11-10T05:13:35.231Z,4.93
2018-11-10T05:16:03.973Z,4.97
2018-11-10T05:18:32.839Z,5.00
2018-11-10T05:21:01.485Z,5.73
2018-11-10T05:23:30.382Z,5.00
2018-11-10T05:25:59.352Z,5.37
2018-11-10T05:28:28.234Z,5.50
2018-11-10T05:30:56.924Z,5.20
2018-11-10T05:33:25.627Z,5.77
2018-11-10T05:35:54.552Z,5.77
2018-11-10T05:38:23.152Z,6.13
2018-11-10T05:40:51.666Z,5.80
2018-11-10T05:43:20.184Z,6.00
2018-11-10T05:45:48.939Z,5.90
2018-11-10T05:48:17.820Z,6.60
2018-11-10T05:50:46.473Z,6.80
2018-11-10T05:53:15.708Z,6.90
2018-11-10T05:55:44.241Z,7.63
2018-11-10T05:58:12.764Z,7.00
2018-11-10T06:00:41.279Z,7.47
2018-11-10T06:03:10.100Z,7.50
2018-11-10T06:05:38.707Z,7.60
2018-11-10T06:08:07.198Z,7.77
2018-11-10T06:10:36.207Z,7.83
2018-11-10T06:13:05.115Z,7.30
2018-11-10T06:15:33.753Z,8.10
2018-11-10T06:18:02.290Z,7.90
2018-11-10T06:20:31.059Z,8.00
2018-11-10T06:22:59.951Z,9.07
2018-11-10T06:25:28.615Z,7.93
2018-11-10T06:27:57.426Z,7.67
2018-11-10T06:30:26.101Z,8.10
2018-11-10T06:32:54.628Z,8.67
2018-11-10T06:35:23.154Z,8.00
2018-11-10T06:37:51.679Z,8.27
2018-11-10T06:40:20.194Z,8.30
2018-11-10T06:42:48.951Z,7.67
2018-11-10T06:45:17.605Z,7.90
2018-11-10T06:47:46.354Z,8.20
2018-11-10T06:50:15.246Z,8.33
2018-11-10T06:52:43.940Z,8.37
2018-11-10T06:55:12.407Z,8.07
2018-11-10T06:57:41.146Z,8.07
2018-11-10T07:00:10.838Z,8.27
2018-11-10T07:02:39.809Z,8.10
2018-11-10T07:05:08.930Z,8.90
2018-11-10T07:07:38.276Z,8.43
2018-11-10T07:10:07.479Z,8.10
2018-11-10T07:12:36.574Z,8.47
2018-11-10T07:15:05.625Z,7.80
2018-11-10T07:17:34.407Z,7.83
2018-11-10T07:20:03.222Z,8.17
2018-11-10T07:22:31.866Z,7.17
2018-11-10T07:25:00.396Z,7.67
2018-11-10T07:27:29.108Z,7.07
2018-11-10T07:29:57.962Z,6.87
2018-11-10T07:32:26.617Z,7.40
2018-11-10T07:34:55.121Z,7.33
2018-11-10T07:37:23.734Z,7.07
2018-11-10T07:39:52.450Z,6.90
2018-11-10T07:42:21.339Z,7.00
2018-11-10T07:44:50.195Z,6.73
2018-11-10T07:47:18.857Z,6.50
2018-11-10T07:49:47.345Z,7.00
2018-11-10T07:52:16.092Z,7.07
2018-11-10T07:54:44.725Z,7.43
2018-11-10T07:57:13.478Z,6.97
2018-11-10T07:59:42.385Z,7.00
2018-11-10T08:02:11.030Z,7.10
2018-11-10T08:04:39.762Z,7.10
2018-11-10T08:07:08.394Z,6.90
2018-11-10T08:09:36.914Z,8.53
2018-11-10T08:12:05.503Z,7.77
2018-11-10T08:14:34.254Z,6.77
2018-11-10T08:17:02.881Z,6.27
2018-11-10T08:19:31.619Z,6.60
2018-11-10T08:22:00.245Z,7.10
2018-11-10T08:24:29.007Z,5.90
2018-11-10T08:26:57.855Z,5.90
2018-11-10T08:29:26.494Z,5.33
2018-11-10T08:31:55.209Z,5.60
2018-11-10T08:34:24.067Z,5.63
2018-11-10T08:36:52.981Z,5.57
2018-11-10T08:39:21.634Z,6.30
2018-11-10T08:41:50.341Z,5.77
2018-11-10T08:44:19.267Z,5.23
2018-11-10T08:46:48.126Z,5.23
2018-11-10T08:49:16.866Z,5.57
2018-11-10T08:51:45.390Z,5.83
2018-11-10T08:54:14.246Z,6.07
2018-11-10T08:56:42.841Z,5.17
2018-11-10T08:59:11.460Z,5.30
2018-11-10T09:01:39.877Z,10.17
2018-11-10T09:04:08.406Z,4.90
2018-11-10T09:06:36.922Z,5.87
2018-11-10T09:09:07.213Z,5.67
2018-11-10T09:11:35.987Z,6.20
2018-11-10T09:14:04.830Z,5.10
2018-11-10T09:16:33.407Z,4.90
2018-11-10T09:19:01.934Z,5.33
2018-11-10T09:21:30.836Z,4.83
2018-11-10T09:23:59.346Z,4.80
2018-11-10T09:26:28.106Z,5.17
2018-11-10T09:28:56.794Z,4.90
2018-11-10T09:31:25.353Z,4.87
2018-11-10T09:33:54.125Z,4.40
2018-11-10T09:36:22.814Z,5.07
2018-11-10T09:38:51.568Z,4.73
2018-11-10T09:41:20.185Z,4.67
2018-11-10T09:43:49.046Z,4.70
2018-11-10T09:46:17.700Z,4.40
2018-11-10T09:48:46.245Z,4.40
2018-11-10T09:51:14.795Z,4.40
2018-11-10T09:53:43.309Z,4.60
2018-11-10T09:56:11.822Z,4.10
2018-11-10T09:58:40.601Z,4.00
2018-11-10T10:01:09.270Z,3.53
2018-11-10T10:03:38.504Z,3.70
2018-11-10T10:06:07.109Z,4.17
2018-11-10T10:08:35.705Z,3.90
2018-11-10T10:11:04.481Z,3.90
2018-11-10T10:13:33.344Z,4.07
2018-11-10T10:16:02.098Z,3.57
2018-11-10T10:18:30.746Z,3.60
2018-11-10T10:20:59.394Z,3.43
2018-11-10T10:23:28.234Z,3.53
2018-11-10T10:25:56.873Z,3.47
2018-11-10T10:28:25.659Z,2.90
2018-11-10T10:30:54.299Z,3.20
2018-11-10T10:33:22.779Z,3.20
2018-11-10T10:35:51.306Z,3.30
2018-11-10T10:38:20.122Z,3.30
2018-11-10T10:40:49.012Z,5.80
2018-11-10T10:43:17.667Z,3.03
2018-11-10T10:45:46.433Z,2.97
2018-11-10T10:48:15.322Z,3.10
2018-11-10T10:50:44.248Z,3.70
2018-11-10T10:53:13.109Z,3.03
2018-11-10T10:55:41.759Z,2.87
2018-11-10T10:58:10.278Z,3.43
2018-11-10T11:00:44.252Z,3.00
2018-11-10T11:03:18.402Z,3.43
2018-11-10T11:05:52.406Z,3.20
2018-11-10T11:08:21.154Z,3.37
2018-11-10T11:10:50.030Z,3.23
2018-11-10T11:13:18.661Z,3.40
2018-11-10T11:15:47.204Z,3.23
2018-11-10T11:18:15.941Z,3.30
2018-11-10T11:20:44.580Z,3.33
2018-11-10T11:23:13.349Z,3.17
2018-11-10T11:25:42.232Z,3.80
2018-11-10T11:28:11.106Z,3.50
2018-11-10T11:30:39.994Z,3.90
2018-11-10T11:33:08.665Z,4.00
2018-11-10T11:35:37.167Z,3.80
2018-11-10T11:38:05.722Z,3.93
2018-11-10T11:40:34.549Z,3.70
2018-11-10T11:43:03.454Z,4.13
2018-11-10T11:45:32.126Z,4.37
2018-11-10T11:48:00.647Z,4.50
2018-11-10T11:50:29.385Z,4.10
2018-11-10T11:52:58.049Z,4.30
2018-11-10T11:55:26.546Z,4.50
2018-11-10T11:57:55.476Z,4.47
2018-11-10T12:00:23.975Z,4.70
2018-11-10T12:02:52.492Z,11.97
2018-11-10T12:05:21.311Z,4.97
2018-11-10T12:07:50.198Z,4.87
2018-11-10T12:10:19.465Z,7.10
2018-11-10T12:12:48.322Z,5.13
2018-11-10T12:15:17.157Z,4.80
2018-11-10T12:17:45.883Z,4.60
2018-11-10T12:20:15.345Z,4.93
2018-11-10T12:22:44.229Z,4.90
2018-11-10T12:25:13.827Z,4.73
2018-11-10T12:27:43.012Z,4.77
2018-11-10T12:30:11.868Z,5.07
2018-11-10T12:32:41.028Z,4.67
2018-11-10T12:35:10.593Z,4.60
2018-11-10T12:37:39.116Z,6.23
2018-11-10T12:40:08.454Z,5.47
2018-11-10T12:42:37.472Z,5.00
2018-11-10T12:45:07.359Z,4.90
2018-11-10T12:47:36.528Z,4.73
2018-11-10T12:50:06.608Z,4.97
2018-11-10T12:52:35.249Z,4.83
2018-11-10T12:55:04.814Z,4.93
2018-11-10T12:57:33.687Z,4.80
2018-11-10T13:00:02.293Z,5.17
2018-11-10T13:02:30.859Z,5.03
2018-11-10T13:04:59.366Z,4.70
2018-11-10T13:07:28.138Z,5.13
2018-11-10T13:09:56.809Z,5.33
2018-11-10T13:12:25.533Z,4.30
2018-11-10T13:14:54.402Z,5.10
2018-11-10T13:17:23.363Z,5.20
2018-11-10T13:19:51.977Z,4.70
2018-11-10T13:22:20.493Z,5.20
2018-11-10T13:24:49.264Z,4.80
2018-11-10T13:27:18.154Z,5.00
2018-11-10T13:29:47.025Z,4.60
2018-11-10T13:32:15.675Z,4.90
2018-11-10T13:34:44.200Z,4.70
2018-11-10T13:37:12.754Z,4.97
2018-11-10T13:39:41.507Z,4.80
2018-11-10T13:42:10.415Z,5.17
2018-11-10T13:44:39.287Z,4.80
2018-11-10T13:47:08.006Z,5.03
2018-11-10T13:49:36.763Z,4.90
2018-11-10T13:52:05.785Z,4.57
2018-11-10T13:54:34.279Z,4.97
2018-11-10T13:57:02.929Z,5.03
2018-11-10T13:59:31.884Z,4.87
2018-11-10T14:02:00.323Z,4.77
2018-11-10T14:04:29.079Z,5.63
2018-11-10T14:06:57.712Z,5.00
2018-11-10T14:09:26.458Z,4.83
2018-11-10T14:11:55.332Z,5.30
2018-11-10T14:14:24.196Z,4.90
2018-11-10T14:16:53.341Z,4.60
2018-11-10T14:19:22.078Z,4.70
2018-11-10T14:21:50.801Z,4.67
2018-11-10T14:24:19.317Z,4.40
2018-11-10T14:26:47.845Z,4.67
2018-11-10T14:29:16.354Z,4.77
2018-11-10T14:31:44.904Z,4.57
2018-11-10T14:34:13.704Z,4.90
2018-11-10T14:36:42.296Z,4.33
2018-11-10T14:39:11.659Z,4.30
2018-11-10T14:41:40.522Z,4.73
2018-11-10T14:44:09.430Z,5.00
2018-11-10T14:46:37.895Z,4.30
2018-11-10T14:49:07.128Z,3.80
2018-11-10T14:51:35.801Z,4.20
2018-11-10T14:54:04.519Z,3.90
2018-11-10T14:56:33.030Z,4.00
2018-11-10T14:59:01.767Z,10.47
2018-11-10T15:01:30.398Z,4.20
2018-11-10T15:03:59.154Z,4.00
2018-11-10T15:06:27.782Z,3.80
2018-11-10T15:08:56.514Z,3.90
2018-11-10T15:11:25.171Z,4.00
2018-11-10T15:13:53.677Z,3.97
2018-11-10T15:16:22.406Z,3.93
2018-11-10T15:18:51.287Z,3.67
2018-11-10T15:21:20.147Z,3.77
2018-11-10T15:23:49.015Z,3.80
2018-11-10T15:26:17.645Z,3.67
2018-11-10T15:28:46.536Z,3.63
2018-11-10T15:31:15.430Z,4.20
2018-11-10T15:33:44.074Z,3.90
2018-11-10T15:36:12.802Z,3.90
2018-11-10T15:38:41.458Z,3.77
2018-11-10T15:41:10.219Z,4.03
2018-11-10T15:43:38.899Z,3.43
2018-11-10T15:46:07.733Z,3.70
2018-11-10T15:48:36.665Z,3.57
2018-11-10T15:51:05.663Z,4.30
2018-11-10T15:53:34.298Z,4.20
2018-11-10T15:56:02.816Z,3.20
2018-11-10T15:58:31.575Z,3.60
2018-11-10T16:01:00.470Z,22.53
2018-11-10T16:03:29.114Z,5.50
2018-11-10T16:05:57.626Z,4.10
2018-11-10T16:08:26.387Z,4.03
2018-11-10T16:10:55.285Z,4.00
2018-11-10T16:13:23.910Z,3.47
2018-11-10T16:15:52.674Z,3.43
2018-11-10T16:18:21.547Z,3.30
2018-11-10T16:20:50.494Z,3.30
2018-11-10T16:23:19.322Z,3.50
2018-11-10T16:25:47.973Z,3.90
2018-11-10T16:28:16.710Z,3.80
2018-11-10T16:30:45.370Z,3.80
2018-11-10T16:33:14.116Z,3.80
2018-11-10T16:35:42.993Z,4.70
2018-11-10T16:38:11.646Z,4.20
2018-11-10T16:40:40.441Z,4.93
2018-11-10T16:43:09.034Z,4.63
2018-11-10T16:45:37.890Z,4.63
2018-11-10T16:48:06.775Z,5.10
2018-11-10T16:50:35.632Z,5.40
2018-11-10T16:53:04.866Z,5.63
2018-11-10T16:55:33.443Z,5.70
2018-11-10T16:58:02.177Z,5.60
2018-11-10T17:00:31.029Z,5.60
2018-11-10T17:02:59.707Z,5.87
2018-11-10T17:05:28.214Z,5.60
2018-11-10T17:07:56.719Z,5.60
2018-11-10T17:10:25.453Z,5.50
2018-11-10T17:12:54.102Z,5.50
2018-11-10T17:15:22.895Z,5.43
2018-11-10T17:17:51.695Z,6.73
2018-11-10T17:20:20.589Z,6.10
2018-11-10T17:22:49.408Z,5.00
2018-11-10T17:25:18.048Z,5.07
2018-11-10T17:27:46.776Z,4.90
2018-11-10T17:30:20.183Z,4.50
2018-11-10T17:32:48.742Z,4.50
2018-11-10T17:35:17.478Z,4.07
2018-11-10T17:37:46.383Z,4.30
2018-11-10T17:40:15.648Z,27.07
2018-11-10T17:42:44.335Z,4.80
2018-11-10T17:45:14.483Z,4.00
2018-11-10T17:47:44.185Z,3.20
2018-11-10T17:50:14.027Z,2.70
2018-11-10T17:52:42.935Z,2.50
2018-11-10T17:55:12.975Z,2.50
2018-11-10T17:57:42.273Z,2.53
2018-11-10T18:00:11.052Z,2.23
2018-11-10T18:02:39.673Z,2.23
2018-11-10T18:05:08.999Z,2.20
2018-11-10T18:07:37.755Z,1.90
2018-11-10T18:10:08.334Z,2.03
2018-11-10T18:12:37.186Z,2.00
2018-11-10T18:15:06.757Z,2.33
2018-11-10T18:17:35.490Z,2.30
2018-11-10T18:20:04.493Z,2.10
2018-11-10T18:22:33.042Z,2.00
2018-11-10T18:25:01.776Z,2.10
2018-11-10T18:27:31.146Z,2.23
2018-11-10T18:29:59.651Z,2.20
2018-11-10T18:32:28.200Z,2.00
2018-11-10T18:34:56.671Z,1.90
2018-11-10T18:37:25.410Z,2.20
2018-11-10T18:39:54.099Z,2.00
2018-11-10T18:42:22.787Z,1.90
2018-11-10T18:44:51.670Z,2.20
2018-11-10T18:47:20.361Z,1.90
2018-11-10T18:49:48.869Z,2.10
2018-11-10T18:52:17.473Z,2.30
2018-11-10T18:54:45.936Z,2.50
2018-11-10T18:57:14.508Z,2.20
2018-11-10T18:59:42.969Z,2.40
2018-11-10T19:02:11.734Z,2.20
2018-11-10T19:04:40.361Z,2.30
2018-11-10T19:07:08.919Z,2.60
2018-11-10T19:09:37.669Z,2.57
2018-11-10T19:12:06.545Z,2.60
2018-11-10T19:14:35.186Z,2.67
2018-11-10T19:17:03.768Z,2.70
2018-11-10T19:19:32.487Z,2.70
2018-11-10T19:22:01.360Z,3.00
2018-11-10T19:24:30.048Z,3.20
2018-11-10T19:26:58.549Z,3.20
2018-11-10T19:29:27.077Z,2.93
2018-11-10T19:31:55.837Z,3.53
2018-11-10T19:34:24.514Z,3.30
2018-11-10T19:36:53.255Z,4.87
2018-11-10T19:39:22.225Z,3.70
2018-11-10T19:41:50.910Z,3.57
2018-11-10T19:44:19.652Z,3.63
2018-11-10T19:46:48.498Z,3.23
2018-11-10T19:49:17.378Z,3.27
2018-11-10T19:51:46.485Z,3.50
2018-11-10T19:54:14.915Z,4.27
2018-11-10T19:56:43.433Z,4.60
2018-11-10T19:59:11.949Z,3.77
2018-11-10T20:01:40.454Z,4.10
2018-11-10T20:04:08.959Z,4.37
2018-11-10T20:06:37.715Z,4.00
2018-11-10T20:09:08.490Z,4.37
2018-11-10T20:11:39.738Z,4.40
2018-11-10T20:14:08.422Z,4.80
2018-11-10T20:16:37.295Z,4.33
2018-11-10T20:19:05.942Z,3.90
2018-11-10T20:21:34.679Z,4.90
2018-11-10T20:24:03.320Z,4.80
2018-11-10T20:26:32.044Z,4.17
2018-11-10T20:29:00.678Z,4.30
2018-11-10T20:31:29.177Z,4.57
2018-11-10T20:33:57.726Z,4.00
2018-11-10T20:36:26.233Z,4.30
2018-11-10T20:38:55.154Z,4.13
2018-11-10T20:41:23.857Z,4.63
2018-11-10T20:43:52.574Z,4.23
2018-11-10T20:46:21.246Z,4.07
2018-11-10T20:48:49.991Z,4.60
2018-11-10T20:51:18.715Z,4.07
2018-11-10T20:53:47.122Z,4.40
2018-11-10T20:56:15.643Z,4.47
2018-11-10T20:58:44.147Z,5.80
2018-11-10T21:01:13.641Z,8.13
2018-11-10T21:03:42.158Z,4.73
2018-11-10T21:06:10.873Z,4.93
2018-11-10T21:08:39.594Z,5.37
2018-11-10T21:11:08.334Z,5.67
2018-11-10T21:13:38.102Z,5.10
2018-11-10T21:16:06.946Z,5.07
2018-11-10T21:18:35.793Z,5.73
2018-11-10T21:21:04.691Z,5.13
2018-11-10T21:23:33.319Z,5.37
2018-11-10T21:26:02.057Z,5.40
2018-11-10T21:28:30.916Z,4.97
2018-11-10T21:30:59.763Z,5.27
2018-11-10T21:33:28.469Z,5.47
2018-11-10T21:35:56.895Z,5.30
2018-11-10T21:38:25.630Z,4.70
2018-11-10T21:40:54.492Z,4.87
2018-11-10T21:43:23.163Z,4.50
2018-11-10T21:45:51.626Z,4.80
2018-11-10T21:48:20.363Z,4.67
2018-11-10T21:50:49.012Z,4.13
2018-11-10T21:53:17.522Z,4.10
2018-11-10T21:55:46.054Z,4.70
2018-11-10T21:58:15.211Z,4.40
2018-11-10T22:00:43.918Z,4.57
2018-11-10T22:03:12.798Z,4.37
2018-11-10T22:05:41.703Z,4.60
2018-11-10T22:08:10.586Z,3.97
2018-11-10T22:10:39.218Z,5.07
2018-11-10T22:13:07.987Z,4.30
2018-11-10T22:15:36.672Z,4.27
2018-11-10T22:18:05.422Z,4.93
2018-11-10T22:20:34.038Z,5.00
2018-11-10T22:23:02.839Z,4.60
2018-11-10T22:25:31.678Z,5.30
2018-11-10T22:28:00.321Z,5.60
2018-11-10T22:30:28.840Z,5.70
2018-11-10T22:32:57.366Z,5.87
2018-11-10T22:35:26.108Z,5.90
2018-11-10T22:37:54.745Z,5.93
2018-11-10T22:40:23.496Z,5.43
2018-11-10T22:42:52.374Z,6.13
2018-11-10T22:45:21.695Z,5.80
2018-11-10T22:47:51.532Z,6.17
2018-11-10T22:50:21.558Z,6.03
2018-11-10T22:52:50.463Z,6.10
2018-11-10T22:55:19.113Z,6.67
2018-11-10T22:57:47.882Z,6.17
2018-11-10T23:00:20.499Z,6.17
2018-11-10T23:02:50.255Z,5.93
2018-11-10T23:05:19.340Z,6.27
2018-11-10T23:07:47.908Z,6.03
2018-11-10T23:10:17.074Z,5.83
2018-11-10T23:12:46.870Z,5.57
2018-11-10T23:15:15.796Z,5.13
2018-11-10T23:17:44.473Z,5.63
2018-11-10T23:20:15.573Z,5.20
2018-11-10T23:22:44.220Z,5.20
2018-11-10T23:25:14.190Z,5.33
2018-11-10T23:27:42.869Z,5.10
2018-11-10T23:30:14.269Z,5.13
2018-11-10T23:32:43.174Z,4.33
2018-11-10T23:35:12.082Z,4.77
2018-11-10T23:37:41.002Z,4.93
2018-11-10T23:40:11.720Z,4.67
2018-11-10T23:42:41.170Z,4.20
2018-11-10T23:45:10.439Z,4.00
2018-11-10T23:47:39.101Z,3.80
2018-11-10T23:50:11.040Z,4.10
2018-11-10T23:52:39.893Z,3.73
2018-11-10T23:55:09.057Z,3.67
2018-11-10T23:57:37.578Z,3.50
